sensor_id;sensor_type;location;lat;lon;timestamp;P1;durP1;ratioP1;P2;durP2;ratioP2
81211;SDS011;70686;52.494;13.420;2023-07-29T00:00:42;10.55;;;7.45;;
81211;SDS011;70686;52.494;13.420;2023-07-29T00:03:08;10.93;;;7.38;;
81211;SDS011;70686;52.494;13.420;2023-07-29T00:05:34;9.68;;;7.40;;
81211;SDS011;70686;52.494;13.420;2023-07-29T00:08:00;11.18;;;7.18;;
81211;SDS011;70686;52.494;13.420;2023-07-29T00:10:26;10.50;;;6.93;;
81211;SDS011;70686;52.494;13.420;2023-07-29T00:12:52;12.50;;;6.78;;
81211;SDS011;70686;52.494;13.420;2023-07-29T00:15:18;11.02;;;7.63;;
81211;SDS011;70686;52.494;13.420;2023-07-29T00:17:44;11.88;;;7.95;;
81211;SDS011;70686;52.494;13.420;2023-07-29T00:20:10;9.50;;;7.07;;
81211;SDS011;70686;52.494;13.420;2023-07-29T00:22:37;10.93;;;7.13;;
81211;SDS011;70686;52.494;13.420;2023-07-29T00:25:03;10.82;;;7.45;;
81211;SDS011;70686;52.494;13.420;2023-07-29T00:27:29;11.65;;;7.38;;
81211;SDS011;70686;52.494;13.420;2023-07-29T00:29:55;12.35;;;7.90;;
81211;SDS011;70686;52.494;13.420;2023-07-29T00:32:21;10.52;;;7.10;;
81211;SDS011;70686;52.494;13.420;2023-07-29T00:34:47;10.00;;;7.55;;
81211;SDS011;70686;52.494;13.420;2023-07-29T00:37:13;11.00;;;7.43;;
81211;SDS011;70686;52.494;13.420;2023-07-29T00:39:39;11.30;;;7.35;;
81211;SDS011;70686;52.494;13.420;2023-07-29T00:42:05;10.40;;;7.25;;
81211;SDS011;70686;52.494;13.420;2023-07-29T00:44:31;11.82;;;7.47;;
81211;SDS011;70686;52.494;13.420;2023-07-29T00:46:57;11.00;;;7.70;;
81211;SDS011;70686;52.494;13.420;2023-07-29T00:49:24;12.38;;;7.95;;
81211;SDS011;70686;52.494;13.420;2023-07-29T00:51:50;12.35;;;7.53;;
81211;SDS011;70686;52.494;13.420;2023-07-29T00:54:16;12.75;;;8.32;;
81211;SDS011;70686;52.494;13.420;2023-07-29T00:56:42;11.35;;;7.93;;
81211;SDS011;70686;52.494;13.420;2023-07-29T00:59:08;12.75;;;7.88;;
81211;SDS011;70686;52.494;13.420;2023-07-29T01:01:34;11.68;;;7.68;;
81211;SDS011;70686;52.494;13.420;2023-07-29T01:04:01;10.77;;;7.88;;
81211;SDS011;70686;52.494;13.420;2023-07-29T01:09:02;12.82;;;8.18;;
81211;SDS011;70686;52.494;13.420;2023-07-29T01:14:51;10.17;;;7.50;;
81211;SDS011;70686;52.494;13.420;2023-07-29T01:16:55;10.95;;;8.18;;
81211;SDS011;70686;52.494;13.420;2023-07-29T01:21:52;11.38;;;7.68;;
81211;SDS011;70686;52.494;13.420;2023-07-29T01:24:18;14.02;;;8.35;;
81211;SDS011;70686;52.494;13.420;2023-07-29T01:26:44;15.68;;;8.98;;
81211;SDS011;70686;52.494;13.420;2023-07-29T01:29:10;14.52;;;9.60;;
81211;SDS011;70686;52.494;13.420;2023-07-29T01:31:39;13.88;;;9.52;;
81211;SDS011;70686;52.494;13.420;2023-07-29T01:34:21;14.55;;;8.85;;
81211;SDS011;70686;52.494;13.420;2023-07-29T01:36:48;13.02;;;8.45;;
81211;SDS011;70686;52.494;13.420;2023-07-29T01:39:17;13.77;;;8.52;;
81211;SDS011;70686;52.494;13.420;2023-07-29T01:41:43;13.70;;;8.20;;
81211;SDS011;70686;52.494;13.420;2023-07-29T01:44:09;13.65;;;8.52;;
81211;SDS011;70686;52.494;13.420;2023-07-29T01:46:36;14.38;;;8.65;;
81211;SDS011;70686;52.494;13.420;2023-07-29T01:49:02;11.60;;;8.05;;
81211;SDS011;70686;52.494;13.420;2023-07-29T01:51:28;11.82;;;8.45;;
81211;SDS011;70686;52.494;13.420;2023-07-29T01:53:54;12.15;;;7.90;;
81211;SDS011;70686;52.494;13.420;2023-07-29T01:56:20;12.98;;;8.40;;
81211;SDS011;70686;52.494;13.420;2023-07-29T01:58:46;12.80;;;8.50;;
81211;SDS011;70686;52.494;13.420;2023-07-29T02:01:12;13.73;;;9.05;;
81211;SDS011;70686;52.494;13.420;2023-07-29T02:03:38;14.52;;;8.73;;
81211;SDS011;70686;52.494;13.420;2023-07-29T02:06:04;14.02;;;9.23;;
81211;SDS011;70686;52.494;13.420;2023-07-29T02:08:30;11.52;;;8.05;;
81211;SDS011;70686;52.494;13.420;2023-07-29T02:10:56;11.68;;;7.97;;
81211;SDS011;70686;52.494;13.420;2023-07-29T02:13:22;14.73;;;8.45;;
81211;SDS011;70686;52.494;13.420;2023-07-29T02:15:48;12.05;;;8.30;;
81211;SDS011;70686;52.494;13.420;2023-07-29T02:18:14;14.27;;;9.38;;
81211;SDS011;70686;52.494;13.420;2023-07-29T02:20:40;13.38;;;8.77;;
81211;SDS011;70686;52.494;13.420;2023-07-29T02:23:13;11.40;;;7.75;;
81211;SDS011;70686;52.494;13.420;2023-07-29T02:25:39;13.32;;;8.45;;
81211;SDS011;70686;52.494;13.420;2023-07-29T02:28:05;12.18;;;8.68;;
81211;SDS011;70686;52.494;13.420;2023-07-29T02:30:31;13.55;;;8.98;;
81211;SDS011;70686;52.494;13.420;2023-07-29T02:32:57;13.35;;;9.00;;
81211;SDS011;70686;52.494;13.420;2023-07-29T02:35:24;14.20;;;9.48;;
81211;SDS011;70686;52.494;13.420;2023-07-29T02:37:50;15.95;;;9.48;;
81211;SDS011;70686;52.494;13.420;2023-07-29T02:40:16;16.42;;;9.70;;
81211;SDS011;70686;52.494;13.420;2023-07-29T02:42:42;13.50;;;9.48;;
81211;SDS011;70686;52.494;13.420;2023-07-29T02:45:08;17.50;;;9.63;;
81211;SDS011;70686;52.494;13.420;2023-07-29T02:47:36;13.82;;;10.25;;
81211;SDS011;70686;52.494;13.420;2023-07-29T02:50:05;14.45;;;9.45;;
81211;SDS011;70686;52.494;13.420;2023-07-29T02:52:31;13.52;;;9.70;;
81211;SDS011;70686;52.494;13.420;2023-07-29T02:54:57;12.13;;;9.27;;
81211;SDS011;70686;52.494;13.420;2023-07-29T02:57:23;14.68;;;9.45;;
81211;SDS011;70686;52.494;13.420;2023-07-29T02:59:49;12.05;;;8.95;;
81211;SDS011;70686;52.494;13.420;2023-07-29T03:02:15;12.88;;;9.07;;
81211;SDS011;70686;52.494;13.420;2023-07-29T03:04:41;12.50;;;9.07;;
81211;SDS011;70686;52.494;13.420;2023-07-29T03:07:07;15.27;;;9.00;;
81211;SDS011;70686;52.494;13.420;2023-07-29T03:09:33;12.40;;;9.05;;
81211;SDS011;70686;52.494;13.420;2023-07-29T03:11:59;13.25;;;9.27;;
81211;SDS011;70686;52.494;13.420;2023-07-29T03:14:25;13.32;;;8.88;;
81211;SDS011;70686;52.494;13.420;2023-07-29T03:16:52;10.85;;;8.02;;
81211;SDS011;70686;52.494;13.420;2023-07-29T03:19:19;14.07;;;8.70;;
81211;SDS011;70686;52.494;13.420;2023-07-29T03:21:45;10.93;;;8.05;;
81211;SDS011;70686;52.494;13.420;2023-07-29T03:24:11;13.70;;;8.30;;
81211;SDS011;70686;52.494;13.420;2023-07-29T03:26:37;14.10;;;8.93;;
81211;SDS011;70686;52.494;13.420;2023-07-29T03:29:03;13.60;;;8.32;;
81211;SDS011;70686;52.494;13.420;2023-07-29T03:31:29;13.15;;;8.55;;
81211;SDS011;70686;52.494;13.420;2023-07-29T03:33:55;12.77;;;8.88;;
81211;SDS011;70686;52.494;13.420;2023-07-29T03:36:21;11.65;;;8.52;;
81211;SDS011;70686;52.494;13.420;2023-07-29T03:38:47;14.07;;;8.98;;
81211;SDS011;70686;52.494;13.420;2023-07-29T03:41:13;11.95;;;8.45;;
81211;SDS011;70686;52.494;13.420;2023-07-29T03:43:39;11.80;;;8.35;;
81211;SDS011;70686;52.494;13.420;2023-07-29T03:46:05;12.68;;;8.68;;
81211;SDS011;70686;52.494;13.420;2023-07-29T03:48:31;11.73;;;7.65;;
81211;SDS011;70686;52.494;13.420;2023-07-29T03:50:57;14.93;;;9.20;;
81211;SDS011;70686;52.494;13.420;2023-07-29T03:53:23;11.63;;;8.20;;
81211;SDS011;70686;52.494;13.420;2023-07-29T03:55:49;11.93;;;8.27;;
81211;SDS011;70686;52.494;13.420;2023-07-29T03:58:15;11.95;;;8.40;;
81211;SDS011;70686;52.494;13.420;2023-07-29T04:00:41;11.13;;;7.93;;
81211;SDS011;70686;52.494;13.420;2023-07-29T04:03:08;13.82;;;8.70;;
81211;SDS011;70686;52.494;13.420;2023-07-29T04:05:33;12.35;;;8.77;;
81211;SDS011;70686;52.494;13.420;2023-07-29T04:07:59;14.40;;;8.70;;
81211;SDS011;70686;52.494;13.420;2023-07-29T04:10:26;11.23;;;8.20;;
81211;SDS011;70686;52.494;13.420;2023-07-29T04:12:52;15.30;;;8.30;;
81211;SDS011;70686;52.494;13.420;2023-07-29T04:15:18;11.70;;;7.88;;
81211;SDS011;70686;52.494;13.420;2023-07-29T04:17:44;11.02;;;7.78;;
81211;SDS011;70686;52.494;13.420;2023-07-29T04:20:10;12.52;;;8.00;;
81211;SDS011;70686;52.494;13.420;2023-07-29T04:22:36;16.30;;;8.77;;
81211;SDS011;70686;52.494;13.420;2023-07-29T04:25:02;11.60;;;7.90;;
81211;SDS011;70686;52.494;13.420;2023-07-29T04:27:29;11.10;;;7.70;;
81211;SDS011;70686;52.494;13.420;2023-07-29T04:29:55;12.80;;;8.18;;
81211;SDS011;70686;52.494;13.420;2023-07-29T04:32:21;10.85;;;7.80;;
81211;SDS011;70686;52.494;13.420;2023-07-29T04:34:47;11.60;;;7.93;;
81211;SDS011;70686;52.494;13.420;2023-07-29T04:37:13;10.65;;;7.85;;
81211;SDS011;70686;52.494;13.420;2023-07-29T04:39:39;10.15;;;7.75;;
81211;SDS011;70686;52.494;13.420;2023-07-29T04:42:05;10.05;;;7.10;;
81211;SDS011;70686;52.494;13.420;2023-07-29T04:44:31;9.88;;;7.38;;
81211;SDS011;70686;52.494;13.420;2023-07-29T04:46:57;8.60;;;7.38;;
81211;SDS011;70686;52.494;13.420;2023-07-29T04:49:23;10.20;;;7.18;;
81211;SDS011;70686;52.494;13.420;2023-07-29T04:51:49;10.25;;;7.30;;
81211;SDS011;70686;52.494;13.420;2023-07-29T04:54:15;9.63;;;7.57;;
81211;SDS011;70686;52.494;13.420;2023-07-29T04:56:41;9.73;;;7.43;;
81211;SDS011;70686;52.494;13.420;2023-07-29T04:59:07;9.35;;;7.25;;
81211;SDS011;70686;52.494;13.420;2023-07-29T05:01:33;10.57;;;7.60;;
81211;SDS011;70686;52.494;13.420;2023-07-29T05:03:59;8.48;;;7.03;;
81211;SDS011;70686;52.494;13.420;2023-07-29T05:06:25;10.23;;;7.65;;
81211;SDS011;70686;52.494;13.420;2023-07-29T05:08:51;10.02;;;7.32;;
81211;SDS011;70686;52.494;13.420;2023-07-29T05:11:17;9.55;;;7.13;;
81211;SDS011;70686;52.494;13.420;2023-07-29T05:13:43;9.63;;;6.90;;
81211;SDS011;70686;52.494;13.420;2023-07-29T05:16:09;9.32;;;7.25;;
81211;SDS011;70686;52.494;13.420;2023-07-29T05:18:35;9.52;;;7.35;;
81211;SDS011;70686;52.494;13.420;2023-07-29T05:21:01;9.45;;;7.28;;
81211;SDS011;70686;52.494;13.420;2023-07-29T05:23:27;9.65;;;7.22;;
81211;SDS011;70686;52.494;13.420;2023-07-29T05:25:53;9.88;;;7.30;;
81211;SDS011;70686;52.494;13.420;2023-07-29T05:28:19;9.00;;;6.75;;
81211;SDS011;70686;52.494;13.420;2023-07-29T05:30:45;9.75;;;6.70;;
81211;SDS011;70686;52.494;13.420;2023-07-29T05:33:11;11.07;;;6.95;;
81211;SDS011;70686;52.494;13.420;2023-07-29T05:35:37;7.30;;;6.07;;
81211;SDS011;70686;52.494;13.420;2023-07-29T05:38:03;8.52;;;6.72;;
81211;SDS011;70686;52.494;13.420;2023-07-29T05:40:31;8.43;;;6.63;;
81211;SDS011;70686;52.494;13.420;2023-07-29T05:42:57;11.23;;;6.88;;
81211;SDS011;70686;52.494;13.420;2023-07-29T05:45:23;7.93;;;6.13;;
81211;SDS011;70686;52.494;13.420;2023-07-29T05:47:49;10.35;;;6.65;;
81211;SDS011;70686;52.494;13.420;2023-07-29T05:50:15;10.20;;;6.97;;
81211;SDS011;70686;52.494;13.420;2023-07-29T05:52:41;11.13;;;6.80;;
81211;SDS011;70686;52.494;13.420;2023-07-29T05:55:07;9.73;;;6.88;;
81211;SDS011;70686;52.494;13.420;2023-07-29T05:57:33;8.15;;;6.55;;
81211;SDS011;70686;52.494;13.420;2023-07-29T05:59:59;10.40;;;6.93;;
81211;SDS011;70686;52.494;13.420;2023-07-29T06:02:25;8.98;;;6.50;;
81211;SDS011;70686;52.494;13.420;2023-07-29T06:04:51;11.52;;;7.50;;
81211;SDS011;70686;52.494;13.420;2023-07-29T06:07:17;8.65;;;6.50;;
81211;SDS011;70686;52.494;13.420;2023-07-29T06:09:43;11.38;;;6.50;;
81211;SDS011;70686;52.494;13.420;2023-07-29T06:12:10;9.40;;;6.25;;
81211;SDS011;70686;52.494;13.420;2023-07-29T06:14:35;9.52;;;6.15;;
81211;SDS011;70686;52.494;13.420;2023-07-29T06:17:02;7.45;;;6.15;;
81211;SDS011;70686;52.494;13.420;2023-07-29T06:19:28;9.73;;;6.32;;
81211;SDS011;70686;52.494;13.420;2023-07-29T06:21:55;7.32;;;5.97;;
81211;SDS011;70686;52.494;13.420;2023-07-29T06:24:21;10.77;;;5.95;;
81211;SDS011;70686;52.494;13.420;2023-07-29T06:26:47;8.73;;;6.03;;
81211;SDS011;70686;52.494;13.420;2023-07-29T06:29:13;6.80;;;5.55;;
81211;SDS011;70686;52.494;13.420;2023-07-29T06:31:39;8.07;;;5.80;;
81211;SDS011;70686;52.494;13.420;2023-07-29T06:34:05;6.90;;;5.55;;
81211;SDS011;70686;52.494;13.420;2023-07-29T06:36:31;8.60;;;5.85;;
81211;SDS011;70686;52.494;13.420;2023-07-29T06:38:57;6.93;;;5.75;;
81211;SDS011;70686;52.494;13.420;2023-07-29T06:41:23;7.28;;;5.68;;
81211;SDS011;70686;52.494;13.420;2023-07-29T06:43:49;8.75;;;5.30;;
81211;SDS011;70686;52.494;13.420;2023-07-29T06:46:14;6.82;;;5.10;;
81211;SDS011;70686;52.494;13.420;2023-07-29T06:48:40;7.72;;;5.43;;
81211;SDS011;70686;52.494;13.420;2023-07-29T06:51:06;6.80;;;4.97;;
81211;SDS011;70686;52.494;13.420;2023-07-29T06:53:33;7.03;;;5.45;;
81211;SDS011;70686;52.494;13.420;2023-07-29T06:55:59;7.82;;;5.35;;
81211;SDS011;70686;52.494;13.420;2023-07-29T06:58:33;6.78;;;5.05;;
81211;SDS011;70686;52.494;13.420;2023-07-29T07:00:59;6.55;;;5.43;;
81211;SDS011;70686;52.494;13.420;2023-07-29T07:03:28;6.25;;;5.53;;
81211;SDS011;70686;52.494;13.420;2023-07-29T07:05:57;7.93;;;5.78;;
81211;SDS011;70686;52.494;13.420;2023-07-29T07:08:23;6.55;;;5.05;;
81211;SDS011;70686;52.494;13.420;2023-07-29T07:10:49;6.95;;;4.90;;
81211;SDS011;70686;52.494;13.420;2023-07-29T07:13:15;6.97;;;5.45;;
81211;SDS011;70686;52.494;13.420;2023-07-29T07:15:41;7.15;;;5.68;;
81211;SDS011;70686;52.494;13.420;2023-07-29T07:18:07;7.22;;;5.47;;
81211;SDS011;70686;52.494;13.420;2023-07-29T07:20:34;7.50;;;5.10;;
81211;SDS011;70686;52.494;13.420;2023-07-29T07:23:00;7.65;;;5.05;;
81211;SDS011;70686;52.494;13.420;2023-07-29T07:25:26;7.55;;;5.28;;
81211;SDS011;70686;52.494;13.420;2023-07-29T07:27:52;7.57;;;5.78;;
81211;SDS011;70686;52.494;13.420;2023-07-29T07:30:18;7.03;;;5.28;;
81211;SDS011;70686;52.494;13.420;2023-07-29T07:32:45;6.45;;;5.18;;
81211;SDS011;70686;52.494;13.420;2023-07-29T07:35:10;6.60;;;5.90;;
81211;SDS011;70686;52.494;13.420;2023-07-29T07:37:37;7.63;;;5.28;;
81211;SDS011;70686;52.494;13.420;2023-07-29T07:40:03;6.38;;;5.68;;
81211;SDS011;70686;52.494;13.420;2023-07-29T07:42:29;6.25;;;5.55;;
81211;SDS011;70686;52.494;13.420;2023-07-29T07:44:55;8.32;;;5.43;;
81211;SDS011;70686;52.494;13.420;2023-07-29T07:47:21;7.28;;;6.20;;
81211;SDS011;70686;52.494;13.420;2023-07-29T07:49:47;6.50;;;5.80;;
81211;SDS011;70686;52.494;13.420;2023-07-29T07:52:15;6.15;;;5.03;;
81211;SDS011;70686;52.494;13.420;2023-07-29T07:54:41;6.25;;;5.40;;
81211;SDS011;70686;52.494;13.420;2023-07-29T07:57:07;8.85;;;5.75;;
81211;SDS011;70686;52.494;13.420;2023-07-29T07:59:33;6.82;;;5.63;;
81211;SDS011;70686;52.494;13.420;2023-07-29T08:01:59;7.68;;;5.50;;
81211;SDS011;70686;52.494;13.420;2023-07-29T08:04:25;6.43;;;5.25;;
81211;SDS011;70686;52.494;13.420;2023-07-29T08:06:51;6.20;;;5.60;;
81211;SDS011;70686;52.494;13.420;2023-07-29T08:09:17;9.35;;;5.63;;
81211;SDS011;70686;52.494;13.420;2023-07-29T08:11:43;5.57;;;4.78;;
81211;SDS011;70686;52.494;13.420;2023-07-29T08:14:09;7.38;;;5.20;;
81211;SDS011;70686;52.494;13.420;2023-07-29T08:16:35;7.20;;;5.18;;
81211;SDS011;70686;52.494;13.420;2023-07-29T08:19:01;5.97;;;4.75;;
81211;SDS011;70686;52.494;13.420;2023-07-29T08:21:27;5.20;;;4.70;;
81211;SDS011;70686;52.494;13.420;2023-07-29T08:23:53;6.20;;;4.65;;
81211;SDS011;70686;52.494;13.420;2023-07-29T08:26:19;5.38;;;4.85;;
81211;SDS011;70686;52.494;13.420;2023-07-29T08:28:46;7.88;;;4.65;;
81211;SDS011;70686;52.494;13.420;2023-07-29T08:31:13;5.75;;;4.82;;
81211;SDS011;70686;52.494;13.420;2023-07-29T08:33:39;5.35;;;4.53;;
81211;SDS011;70686;52.494;13.420;2023-07-29T08:36:05;6.75;;;5.05;;
81211;SDS011;70686;52.494;13.420;2023-07-29T08:38:32;5.97;;;4.50;;
81211;SDS011;70686;52.494;13.420;2023-07-29T08:43:31;5.50;;;4.75;;
81211;SDS011;70686;52.494;13.420;2023-07-29T08:45:57;5.82;;;5.00;;
81211;SDS011;70686;52.494;13.420;2023-07-29T08:48:28;5.38;;;4.70;;
81211;SDS011;70686;52.494;13.420;2023-07-29T08:50:55;6.05;;;5.00;;
81211;SDS011;70686;52.494;13.420;2023-07-29T08:53:21;8.02;;;5.07;;
81211;SDS011;70686;52.494;13.420;2023-07-29T08:55:47;7.47;;;4.90;;
81211;SDS011;70686;52.494;13.420;2023-07-29T08:58:14;6.05;;;4.80;;
81211;SDS011;70686;52.494;13.420;2023-07-29T09:00:41;5.20;;;4.60;;
81211;SDS011;70686;52.494;13.420;2023-07-29T09:03:08;5.22;;;4.65;;
81211;SDS011;70686;52.494;13.420;2023-07-29T09:05:34;5.38;;;4.50;;
81211;SDS011;70686;52.494;13.420;2023-07-29T09:08:01;5.45;;;4.90;;
81211;SDS011;70686;52.494;13.420;2023-07-29T09:10:28;5.22;;;4.72;;
81211;SDS011;70686;52.494;13.420;2023-07-29T09:12:54;5.28;;;4.63;;
81211;SDS011;70686;52.494;13.420;2023-07-29T09:15:27;5.07;;;4.53;;
81211;SDS011;70686;52.494;13.420;2023-07-29T09:17:55;4.35;;;3.95;;
81211;SDS011;70686;52.494;13.420;2023-07-29T09:20:27;4.82;;;4.30;;
81211;SDS011;70686;52.494;13.420;2023-07-29T09:22:54;6.13;;;4.00;;
81211;SDS011;70686;52.494;13.420;2023-07-29T09:25:24;5.45;;;4.40;;
81211;SDS011;70686;52.494;13.420;2023-07-29T09:27:50;5.72;;;4.20;;
81211;SDS011;70686;52.494;13.420;2023-07-29T09:30:16;4.13;;;3.70;;
81211;SDS011;70686;52.494;13.420;2023-07-29T09:32:43;7.28;;;4.35;;
81211;SDS011;70686;52.494;13.420;2023-07-29T09:35:12;5.10;;;4.30;;
81211;SDS011;70686;52.494;13.420;2023-07-29T09:37:39;5.15;;;4.15;;
81211;SDS011;70686;52.494;13.420;2023-07-29T09:40:05;5.75;;;4.60;;
81211;SDS011;70686;52.494;13.420;2023-07-29T09:42:32;5.97;;;4.43;;
81211;SDS011;70686;52.494;13.420;2023-07-29T09:44:58;7.90;;;4.82;;
81211;SDS011;70686;52.494;13.420;2023-07-29T09:47:25;5.10;;;4.40;;
81211;SDS011;70686;52.494;13.420;2023-07-29T09:49:51;7.57;;;5.72;;
81211;SDS011;70686;52.494;13.420;2023-07-29T09:52:18;4.53;;;4.05;;
81211;SDS011;70686;52.494;13.420;2023-07-29T09:54:45;6.03;;;4.20;;
81211;SDS011;70686;52.494;13.420;2023-07-29T09:57:15;4.30;;;3.90;;
81211;SDS011;70686;52.494;13.420;2023-07-29T09:59:42;5.47;;;4.00;;
81211;SDS011;70686;52.494;13.420;2023-07-29T10:02:15;4.82;;;3.95;;
81211;SDS011;70686;52.494;13.420;2023-07-29T10:04:42;4.10;;;3.72;;
81211;SDS011;70686;52.494;13.420;2023-07-29T10:07:09;4.60;;;4.03;;
81211;SDS011;70686;52.494;13.420;2023-07-29T10:09:36;4.38;;;3.83;;
81211;SDS011;70686;52.494;13.420;2023-07-29T10:12:02;4.70;;;4.00;;
81211;SDS011;70686;52.494;13.420;2023-07-29T10:14:28;4.28;;;3.60;;
81211;SDS011;70686;52.494;13.420;2023-07-29T10:16:56;3.88;;;3.47;;
81211;SDS011;70686;52.494;13.420;2023-07-29T10:19:23;3.95;;;3.55;;
81211;SDS011;70686;52.494;13.420;2023-07-29T10:21:51;3.92;;;3.50;;
81211;SDS011;70686;52.494;13.420;2023-07-29T10:24:22;4.10;;;3.70;;
81211;SDS011;70686;52.494;13.420;2023-07-29T10:26:54;4.63;;;3.83;;
81211;SDS011;70686;52.494;13.420;2023-07-29T10:29:22;6.38;;;4.05;;
81211;SDS011;70686;52.494;13.420;2023-07-29T10:31:50;4.05;;;3.65;;
81211;SDS011;70686;52.494;13.420;2023-07-29T10:34:18;5.82;;;3.63;;
81211;SDS011;70686;52.494;13.420;2023-07-29T10:36:45;4.43;;;3.60;;
81211;SDS011;70686;52.494;13.420;2023-07-29T10:39:11;5.03;;;3.50;;
81211;SDS011;70686;52.494;13.420;2023-07-29T10:44:45;3.60;;;3.30;;
81211;SDS011;70686;52.494;13.420;2023-07-29T10:47:14;4.60;;;3.35;;
81211;SDS011;70686;52.494;13.420;2023-07-29T10:49:40;3.92;;;3.30;;
81211;SDS011;70686;52.494;13.420;2023-07-29T10:52:06;4.65;;;3.60;;
81211;SDS011;70686;52.494;13.420;2023-07-29T10:54:42;3.58;;;3.10;;
81211;SDS011;70686;52.494;13.420;2023-07-29T10:57:12;3.88;;;3.30;;
81211;SDS011;70686;52.494;13.420;2023-07-29T10:59:39;3.45;;;3.10;;
81211;SDS011;70686;52.494;13.420;2023-07-29T11:02:11;3.65;;;2.90;;
81211;SDS011;70686;52.494;13.420;2023-07-29T11:04:48;3.72;;;3.00;;
81211;SDS011;70686;52.494;13.420;2023-07-29T11:09:54;4.97;;;3.13;;
81211;SDS011;70686;52.494;13.420;2023-07-29T11:15:21;4.22;;;3.05;;
81211;SDS011;70686;52.494;13.420;2023-07-29T11:20:13;4.88;;;2.10;;
81211;SDS011;70686;52.494;13.420;2023-07-29T11:22:40;4.30;;;2.90;;
81211;SDS011;70686;52.494;13.420;2023-07-29T11:25:07;0.10;;;0.10;;
81211;SDS011;70686;52.494;13.420;2023-07-29T11:27:33;0.17;;;0.08;;
81211;SDS011;70686;52.494;13.420;2023-07-29T11:30:00;0.17;;;0.17;;
81211;SDS011;70686;52.494;13.420;2023-07-29T11:32:27;0.15;;;0.15;;
81211;SDS011;70686;52.494;13.420;2023-07-29T11:34:53;0.00;;;0.00;;
81211;SDS011;70686;52.494;13.420;2023-07-29T11:37:19;0.20;;;0.20;;
81211;SDS011;70686;52.494;13.420;2023-07-29T11:39:46;0.17;;;0.17;;
81211;SDS011;70686;52.494;13.420;2023-07-29T11:42:13;2.08;;;0.63;;
81211;SDS011;70686;52.494;13.420;2023-07-29T11:44:42;0.10;;;0.10;;
81211;SDS011;70686;52.494;13.420;2023-07-29T11:47:09;0.30;;;0.20;;
81211;SDS011;70686;52.494;13.420;2023-07-29T11:49:35;0.68;;;0.32;;
81211;SDS011;70686;52.494;13.420;2023-07-29T11:52:02;0.17;;;0.17;;
81211;SDS011;70686;52.494;13.420;2023-07-29T11:54:31;0.30;;;0.08;;
81211;SDS011;70686;52.494;13.420;2023-07-29T11:56:57;0.00;;;0.00;;
81211;SDS011;70686;52.494;13.420;2023-07-29T11:59:23;0.00;;;0.00;;
81211;SDS011;70686;52.494;13.420;2023-07-29T12:01:50;0.20;;;0.05;;
81211;SDS011;70686;52.494;13.420;2023-07-29T12:04:16;0.10;;;0.10;;
81211;SDS011;70686;52.494;13.420;2023-07-29T12:06:42;0.25;;;0.25;;
81211;SDS011;70686;52.494;13.420;2023-07-29T12:09:08;0.25;;;0.20;;
81211;SDS011;70686;52.494;13.420;2023-07-29T12:11:35;0.32;;;0.22;;
81211;SDS011;70686;52.494;13.420;2023-07-29T12:14:01;0.10;;;0.10;;
81211;SDS011;70686;52.494;13.420;2023-07-29T12:16:27;0.63;;;0.50;;
81211;SDS011;70686;52.494;13.420;2023-07-29T12:19:00;0.20;;;0.20;;
81211;SDS011;70686;52.494;13.420;2023-07-29T12:21:26;0.38;;;0.13;;
81211;SDS011;70686;52.494;13.420;2023-07-29T12:23:52;0.00;;;0.00;;
81211;SDS011;70686;52.494;13.420;2023-07-29T12:26:18;0.15;;;0.15;;
81211;SDS011;70686;52.494;13.420;2023-07-29T12:28:47;0.55;;;0.40;;
81211;SDS011;70686;52.494;13.420;2023-07-29T12:31:13;0.20;;;0.10;;
81211;SDS011;70686;52.494;13.420;2023-07-29T12:33:39;3.72;;;0.55;;
81211;SDS011;70686;52.494;13.420;2023-07-29T12:36:07;0.20;;;0.20;;
81211;SDS011;70686;52.494;13.420;2023-07-29T12:38:33;0.88;;;0.32;;
81211;SDS011;70686;52.494;13.420;2023-07-29T12:40:59;0.20;;;0.20;;
81211;SDS011;70686;52.494;13.420;2023-07-29T12:43:25;0.28;;;0.28;;
81211;SDS011;70686;52.494;13.420;2023-07-29T12:45:51;0.22;;;0.22;;
81211;SDS011;70686;52.494;13.420;2023-07-29T12:48:18;0.70;;;0.55;;
81211;SDS011;70686;52.494;13.420;2023-07-29T12:50:51;0.08;;;0.08;;
81211;SDS011;70686;52.494;13.420;2023-07-29T12:53:17;1.10;;;1.00;;
81211;SDS011;70686;52.494;13.420;2023-07-29T12:55:46;0.38;;;0.38;;
81211;SDS011;70686;52.494;13.420;2023-07-29T12:58:12;20.08;;;1.00;;
81211;SDS011;70686;52.494;13.420;2023-07-29T13:00:38;4.97;;;1.98;;
81211;SDS011;70686;52.494;13.420;2023-07-29T13:03:04;1.48;;;1.00;;
81211;SDS011;70686;52.494;13.420;2023-07-29T13:05:30;1.70;;;1.52;;
81211;SDS011;70686;52.494;13.420;2023-07-29T13:07:56;4.47;;;2.50;;
81211;SDS011;70686;52.494;13.420;2023-07-29T13:10:23;2.30;;;2.08;;
81211;SDS011;70686;52.494;13.420;2023-07-29T13:12:49;3.65;;;2.10;;
81211;SDS011;70686;52.494;13.420;2023-07-29T13:15:15;3.70;;;2.80;;
81211;SDS011;70686;52.494;13.420;2023-07-29T13:17:41;3.42;;;2.70;;
81211;SDS011;70686;52.494;13.420;2023-07-29T13:20:07;3.22;;;2.40;;
81211;SDS011;70686;52.494;13.420;2023-07-29T13:22:33;3.40;;;2.67;;
81211;SDS011;70686;52.494;13.420;2023-07-29T13:24:59;4.13;;;2.67;;
81211;SDS011;70686;52.494;13.420;2023-07-29T13:27:25;4.72;;;2.78;;
81211;SDS011;70686;52.494;13.420;2023-07-29T13:29:51;4.70;;;3.05;;
81211;SDS011;70686;52.494;13.420;2023-07-29T13:32:17;4.03;;;2.83;;
81211;SDS011;70686;52.494;13.420;2023-07-29T13:34:43;7.15;;;2.83;;
81211;SDS011;70686;52.494;13.420;2023-07-29T13:37:09;4.55;;;2.83;;
81211;SDS011;70686;52.494;13.420;2023-07-29T13:39:35;3.63;;;3.10;;
81211;SDS011;70686;52.494;13.420;2023-07-29T13:42:01;3.78;;;2.85;;
81211;SDS011;70686;52.494;13.420;2023-07-29T13:44:27;3.97;;;3.08;;
81211;SDS011;70686;52.494;13.420;2023-07-29T13:46:53;3.00;;;2.70;;
81211;SDS011;70686;52.494;13.420;2023-07-29T13:49:19;3.50;;;2.55;;
81211;SDS011;70686;52.494;13.420;2023-07-29T13:51:45;3.42;;;2.72;;
81211;SDS011;70686;52.494;13.420;2023-07-29T13:54:11;2.88;;;2.60;;
81211;SDS011;70686;52.494;13.420;2023-07-29T13:56:37;3.90;;;2.72;;
81211;SDS011;70686;52.494;13.420;2023-07-29T13:59:03;4.25;;;2.67;;
81211;SDS011;70686;52.494;13.420;2023-07-29T14:01:29;2.90;;;2.38;;
81211;SDS011;70686;52.494;13.420;2023-07-29T14:03:55;3.20;;;2.90;;
81211;SDS011;70686;52.494;13.420;2023-07-29T14:06:22;3.30;;;2.72;;
81211;SDS011;70686;52.494;13.420;2023-07-29T14:08:47;4.18;;;2.40;;
81211;SDS011;70686;52.494;13.420;2023-07-29T14:11:13;3.13;;;2.63;;
81211;SDS011;70686;52.494;13.420;2023-07-29T14:13:39;2.85;;;2.35;;
81211;SDS011;70686;52.494;13.420;2023-07-29T14:16:05;3.95;;;2.85;;
81211;SDS011;70686;52.494;13.420;2023-07-29T14:18:31;4.05;;;2.70;;
81211;SDS011;70686;52.494;13.420;2023-07-29T14:20:58;2.92;;;2.67;;
81211;SDS011;70686;52.494;13.420;2023-07-29T14:23:24;3.42;;;2.95;;
81211;SDS011;70686;52.494;13.420;2023-07-29T14:25:50;2.97;;;2.70;;
81211;SDS011;70686;52.494;13.420;2023-07-29T14:28:16;3.30;;;2.90;;
81211;SDS011;70686;52.494;13.420;2023-07-29T14:30:42;4.32;;;3.13;;
81211;SDS011;70686;52.494;13.420;2023-07-29T14:33:08;3.97;;;3.42;;
81211;SDS011;70686;52.494;13.420;2023-07-29T14:35:34;5.60;;;4.60;;
81211;SDS011;70686;52.494;13.420;2023-07-29T14:38:00;4.80;;;3.60;;
81211;SDS011;70686;52.494;13.420;2023-07-29T14:40:26;2.90;;;2.58;;
81211;SDS011;70686;52.494;13.420;2023-07-29T14:42:52;3.55;;;3.00;;
81211;SDS011;70686;52.494;13.420;2023-07-29T14:45:18;3.30;;;2.95;;
81211;SDS011;70686;52.494;13.420;2023-07-29T14:47:44;3.10;;;2.80;;